Time;durP1;ratioP1;P1;durP2;ratioP2;P2;SDS_P1;SDS_P2;PMS_P1;PMS_P2;Temp;Humidity;BMP_temperature;BMP_pressure;BME280_temperature;BME280_humidity;BME280_pressure;Samples;Min_cycle;Max_cycle;Signal;HPM_P1;HPM_P2
2020/12/02 00:01:00;;;;;;;31.27;10.43;;;3.30;99.90;;;;;;5033787;28;20666;-42
2020/12/02 00:03:33;;;;;;;18.67;9.87;;;3.20;99.90;;;;;;5033401;28;20232;-41
2020/12/02 00:06:01;;;;;;;22.70;10.53;;;3.20;99.90;;;;;;5032494;28;20299;-43
2020/12/02 00:08:32;;;;;;;27.43;10.10;;;3.20;99.90;;;;;;5033183;28;20236;-42
2020/12/02 00:10:59;;;;;;;20.03;9.07;;;3.30;99.90;;;;;;5032895;28;20327;-43
2020/12/02 00:13:29;;;;;;;21.05;9.52;;;3.30;99.90;;;;;;5032883;28;20691;-41
2020/12/02 00:15:56;;;;;;;17.03;9.07;;;3.20;99.90;;;;;;5032968;28;20322;-42
2020/12/02 00:18:24;;;;;;;21.07;8.37;;;3.20;99.90;;;;;;5032754;28;20204;-42
2020/12/02 00:20:51;;;;;;;25.23;9.30;;;3.20;99.90;;;;;;5032700;28;20432;-42
2020/12/02 00:23:18;;;;;;;19.70;9.53;;;3.20;99.90;;;;;;5032915;28;20233;-42
2020/12/02 00:25:46;;;;;;;15.60;9.60;;;3.30;99.90;;;;;;5032954;28;20219;-45
2020/12/02 00:28:14;;;;;;;22.57;9.30;;;3.30;99.90;;;;;;5032531;28;20680;-42
2020/12/02 00:30:42;;;;;;;17.87;9.80;;;3.30;99.90;;;;;;5032526;28;20303;-44
2020/12/02 00:33:13;;;;;;;12.80;9.33;;;3.40;99.90;;;;;;5032463;28;20711;-42
2020/12/02 00:35:41;;;;;;;20.37;9.53;;;3.40;99.90;;;;;;5032581;28;20219;-45
2020/12/02 00:38:10;;;;;;;20.50;10.60;;;3.50;99.90;;;;;;5032505;28;20213;-44
2020/12/02 00:40:44;;;;;;;19.93;8.73;;;3.40;99.90;;;;;;5031859;28;20667;-43
2020/12/02 00:43:12;;;;;;;16.60;10.20;;;3.40;99.90;;;;;;5032244;28;20254;-43
2020/12/02 00:45:40;;;;;;;15.77;10.00;;;3.40;99.90;;;;;;5032209;28;20304;-43
2020/12/02 00:48:12;;;;;;;17.97;9.87;;;3.40;99.90;;;;;;5032406;28;20247;-42
2020/12/02 00:50:41;;;;;;;14.23;9.80;;;3.30;99.90;;;;;;5032408;28;20260;-42
2020/12/02 00:53:11;;;;;;;15.83;10.53;;;3.30;99.90;;;;;;5032243;28;20205;-42
2020/12/02 00:55:39;;;;;;;17.53;12.13;;;3.20;99.90;;;;;;5032348;28;20254;-42
2020/12/02 00:58:11;;;;;;;17.20;9.87;;;3.30;99.90;;;;;;5032027;28;20296;-42
2020/12/02 01:00:40;;;;;;;15.33;11.13;;;3.30;99.90;;;;;;5032346;28;20232;-43
2020/12/02 01:03:13;;;;;;;14.98;10.68;;;3.30;99.90;;;;;;5031971;28;20264;-43
2020/12/02 01:05:41;;;;;;;14.30;10.48;;;3.30;99.90;;;;;;5032253;28;20296;-43
2020/12/02 01:08:22;;;;;;;13.97;9.93;;;3.30;99.90;;;;;;5032145;28;20295;-43
2020/12/02 01:10:54;;;;;;;15.40;9.47;;;3.30;99.90;;;;;;5031831;28;20280;-43
2020/12/02 01:13:21;;;;;;;13.55;9.93;;;3.30;99.90;;;;;;5031982;28;20628;-47
2020/12/02 01:15:49;;;;;;;17.80;11.30;;;3.30;99.90;;;;;;5031867;28;20242;-45
2020/12/02 01:18:19;;;;;;;15.80;11.27;;;3.40;99.90;;;;;;5031997;28;20243;-46
2020/12/02 01:20:54;;;;;;;15.57;11.33;;;3.40;99.90;;;;;;5032095;28;20295;-46
2020/12/02 01:23:22;;;;;;;15.27;11.97;;;3.50;99.90;;;;;;5031827;28;20568;-48
2020/12/02 01:25:51;;;;;;;16.60;11.47;;;3.50;99.90;;;;;;5032119;28;20209;-48
2020/12/02 01:28:24;;;;;;;15.27;10.60;;;3.50;99.90;;;;;;5032080;28;20255;-43
2020/12/02 01:30:52;;;;;;;14.20;10.43;;;3.50;99.90;;;;;;5031894;28;20208;-43
2020/12/02 01:33:19;;;;;;;19.00;11.38;;;3.50;99.90;;;;;;5031911;28;20311;-49
2020/12/02 01:35:50;;;;;;;13.37;10.90;;;3.60;99.90;;;;;;5031664;28;20303;-44
2020/12/02 01:38:23;;;;;;;15.57;11.23;;;3.70;99.90;;;;;;5031745;28;20694;-45
2020/12/02 01:40:53;;;;;;;15.13;10.63;;;3.70;99.90;;;;;;5031939;28;20376;-44
2020/12/02 01:43:20;;;;;;;16.90;11.80;;;3.60;99.90;;;;;;5031786;28;20579;-47
2020/12/02 01:45:50;;;;;;;19.63;12.17;;;3.60;99.90;;;;;;5031815;28;20213;-46
2020/12/02 01:48:49;;;;;;;18.37;12.10;;;3.60;99.90;;;;;;5031556;28;20664;-46
2020/12/02 01:51:36;;;;;;;17.00;11.27;;;3.60;99.90;;;;;;5031632;28;20286;-48
2020/12/02 01:54:07;;;;;;;13.53;10.27;;;3.70;99.90;;;;;;5035617;28;20208;-42
2020/12/02 01:56:37;;;;;;;15.90;11.73;;;3.60;99.90;;;;;;5035439;28;20240;-45
2020/12/02 01:59:16;;;;;;;17.67;12.63;;;3.60;99.90;;;;;;5035922;28;20331;-42
2020/12/02 02:01:57;;;;;;;15.80;12.53;;;3.60;99.90;;;;;;5035471;28;20654;-41
2020/12/02 02:04:32;;;;;;;19.03;13.47;;;3.60;99.90;;;;;;5035418;28;20247;-41
2020/12/02 02:07:08;;;;;;;18.53;13.47;;;3.70;99.90;;;;;;5035206;28;20766;-43
2020/12/02 02:09:36;;;;;;;17.93;12.93;;;3.80;99.90;;;;;;5035265;28;20264;-44
2020/12/02 02:12:25;;;;;;;17.67;13.27;;;3.80;99.90;;;;;;5035301;28;20209;-42
2020/12/02 02:15:05;;;;;;;17.37;13.27;;;3.80;99.90;;;;;;5035349;28;20295;-42
2020/12/02 02:17:32;;;;;;;18.13;14.17;;;3.80;99.90;;;;;;5035108;28;20262;-47
2020/12/02 02:20:00;;;;;;;18.80;13.90;;;3.80;99.90;;;;;;5035284;28;20204;-44
2020/12/02 02:22:28;;;;;;;21.40;15.52;;;3.80;99.90;;;;;;5035164;28;20251;-43
2020/12/02 02:24:56;;;;;;;18.00;14.00;;;3.90;99.90;;;;;;5034999;28;20303;-46
2020/12/02 02:27:27;;;;;;;19.27;14.20;;;3.80;99.90;;;;;;5034857;28;20262;-47
2020/12/02 02:29:55;;;;;;;18.93;14.67;;;3.70;99.90;;;;;;5034947;28;20291;-44
2020/12/02 02:32:26;;;;;;;20.90;15.10;;;3.90;99.90;;;;;;5034996;28;20289;-45
2020/12/02 02:34:56;;;;;;;24.10;15.83;;;3.90;99.90;;;;;;5035137;28;20299;-42
2020/12/02 02:37:26;;;;;;;21.20;15.83;;;3.90;99.90;;;;;;5034834;28;20204;-50
2020/12/02 02:39:54;;;;;;;21.75;15.52;;;3.80;99.90;;;;;;5034726;28;20459;-40
2020/12/02 02:42:30;;;;;;;20.90;16.00;;;3.90;99.90;;;;;;5034611;28;20225;-41
2020/12/02 02:44:59;;;;;;;24.87;17.37;;;3.90;99.90;;;;;;5034654;28;20299;-46
2020/12/02 02:47:26;;;;;;;24.90;18.30;;;3.90;99.90;;;;;;5034726;28;20295;-43
2020/12/02 02:49:53;;;;;;;24.33;17.63;;;3.80;99.90;;;;;;5034601;28;20209;-45
2020/12/02 02:52:21;;;;;;;23.70;16.70;;;3.90;99.90;;;;;;5033920;28;20252;-45
2020/12/02 02:54:47;;;;;;;24.25;17.25;;;3.90;99.90;;;;;;5034517;28;20223;-43
2020/12/02 02:57:14;;;;;;;25.30;17.13;;;3.90;99.90;;;;;;5034280;28;20395;-45
2020/12/02 02:59:43;;;;;;;24.20;16.50;;;3.90;99.90;;;;;;5034416;28;20208;-43
2020/12/02 03:02:13;;;;;;;26.83;18.57;;;4.00;99.90;;;;;;5034270;28;20219;-48
2020/12/02 03:04:40;;;;;;;25.20;16.50;;;4.00;99.90;;;;;;5033868;28;20209;-42
2020/12/02 03:07:14;;;;;;;27.13;16.52;;;4.00;99.90;;;;;;5033964;28;20209;-43
2020/12/02 03:09:41;;;;;;;26.27;16.52;;;4.00;99.90;;;;;;5034028;28;20328;-43
2020/12/02 03:12:08;;;;;;;26.87;18.63;;;3.90;99.90;;;;;;5033990;28;20636;-45
2020/12/02 03:14:41;;;;;;;26.13;17.70;;;3.90;99.90;;;;;;5034102;28;20557;-44
2020/12/02 03:17:12;;;;;;;27.40;19.57;;;3.90;99.90;;;;;;5033929;28;20718;-43
2020/12/02 03:19:49;;;;;;;26.80;19.70;;;3.90;99.90;;;;;;5034014;28;20212;-42
2020/12/02 03:22:20;;;;;;;28.03;19.17;;;3.80;99.90;;;;;;5033979;28;20216;-42
2020/12/02 03:24:49;;;;;;;29.80;20.60;;;3.80;99.90;;;;;;5033927;28;20208;-49
2020/12/02 03:27:16;;;;;;;28.00;20.77;;;3.70;99.90;;;;;;5033898;28;20212;-44
2020/12/02 03:29:44;;;;;;;28.90;21.33;;;3.70;99.90;;;;;;5033858;28;20303;-44
2020/12/02 03:32:12;;;;;;;30.80;21.93;;;3.70;99.90;;;;;;5033657;28;20671;-43
2020/12/02 03:34:39;;;;;;;32.60;22.70;;;3.70;99.90;;;;;;5033474;28;20262;-45
2020/12/02 03:37:06;;;;;;;32.27;22.63;;;3.70;99.90;;;;;;5034019;28;20252;-48
2020/12/02 03:39:33;;;;;;;31.40;23.13;;;3.60;99.90;;;;;;5033728;28;20696;-45
2020/12/02 03:42:00;;;;;;;32.07;22.73;;;3.70;99.90;;;;;;5033785;28;20212;-43
2020/12/02 03:44:27;;;;;;;34.13;23.47;;;3.60;99.90;;;;;;5033428;28;20271;-43
2020/12/02 03:46:54;;;;;;;31.77;23.03;;;3.60;99.90;;;;;;5033414;28;20300;-44
2020/12/02 03:49:22;;;;;;;35.33;24.07;;;3.50;99.90;;;;;;5033645;28;20212;-44
2020/12/02 03:51:50;;;;;;;35.30;25.27;;;3.50;99.90;;;;;;5033603;28;20212;-43
2020/12/02 03:54:17;;;;;;;41.13;26.93;;;3.40;99.90;;;;;;5033244;28;20662;-46
2020/12/02 03:56:45;;;;;;;36.60;25.60;;;3.30;99.90;;;;;;5033162;28;20616;-43
2020/12/02 03:59:12;;;;;;;38.10;25.93;;;3.20;99.90;;;;;;5033117;28;20212;-44
2020/12/02 04:01:39;;;;;;;38.03;26.83;;;3.20;99.90;;;;;;5033009;28;20303;-46
2020/12/02 04:04:06;;;;;;;40.40;26.83;;;3.20;99.90;;;;;;5033283;28;20319;-46
2020/12/02 04:06:34;;;;;;;42.47;27.33;;;3.10;99.90;;;;;;5033012;28;20662;-44
2020/12/02 04:09:01;;;;;;;43.37;28.00;;;3.10;99.90;;;;;;5032822;28;20220;-46
2020/12/02 04:11:28;;;;;;;41.83;26.90;;;3.10;99.90;;;;;;5032994;28;20307;-47
2020/12/02 04:13:55;;;;;;;46.17;28.87;;;3.10;99.90;;;;;;5032915;28;20293;-46
2020/12/02 04:16:22;;;;;;;44.60;28.53;;;3.10;99.90;;;;;;5032118;28;20554;-44
2020/12/02 04:18:49;;;;;;;44.37;28.17;;;3.20;99.90;;;;;;5033004;28;20209;-44
2020/12/02 04:21:23;;;;;;;45.93;28.80;;;3.10;99.90;;;;;;5032951;28;20248;-43
2020/12/02 04:23:51;;;;;;;40.77;26.97;;;3.10;99.90;;;;;;5032710;28;20319;-43
2020/12/02 04:26:19;;;;;;;47.47;28.97;;;3.10;99.90;;;;;;5032681;28;20518;-44
2020/12/02 04:28:46;;;;;;;40.73;26.80;;;3.20;99.90;;;;;;5032738;28;20219;-44
2020/12/02 04:31:13;;;;;;;38.27;27.00;;;3.20;99.90;;;;;;5033019;28;20296;-45
2020/12/02 04:33:40;;;;;;;38.43;26.20;;;3.20;99.90;;;;;;5367021;23;20422;-42
2020/12/02 04:36:08;;;;;;;43.53;27.53;;;3.20;99.90;;;;;;5052587;28;20625;-45
2020/12/02 04:38:36;;;;;;;37.60;23.30;;;3.10;99.90;;;;;;5052321;28;20302;-44
2020/12/02 04:41:06;;;;;;;35.40;24.17;;;3.10;99.90;;;;;;5052297;28;20243;-46
2020/12/02 04:43:36;;;;;;;38.97;25.40;;;3.10;99.90;;;;;;5052522;28;20252;-43
2020/12/02 04:46:08;;;;;;;34.77;22.93;;;3.10;99.90;;;;;;5052493;28;20295;-42
2020/12/02 04:48:35;;;;;;;40.37;25.03;;;3.10;99.90;;;;;;5052306;28;20644;-45
2020/12/02 04:51:07;;;;;;;41.20;26.40;;;3.10;99.90;;;;;;5052263;28;20295;-44
2020/12/02 04:53:38;;;;;;;38.73;24.83;;;3.10;99.90;;;;;;5052008;28;20206;-44
2020/12/02 04:56:07;;;;;;;36.00;24.13;;;3.10;99.90;;;;;;5052299;28;20216;-44
2020/12/02 04:58:36;;;;;;;37.60;25.83;;;3.20;99.90;;;;;;5052194;28;20210;-44
2020/12/02 05:01:20;;;;;;;37.73;25.37;;;3.10;99.90;;;;;;5051917;28;20675;-43
2020/12/02 05:03:49;;;;;;;39.67;25.73;;;3.10;99.90;;;;;;5051861;28;20734;-46
2020/12/02 05:06:22;;;;;;;34.17;23.10;;;3.10;99.90;;;;;;5051740;28;20214;-43
2020/12/02 05:08:50;;;;;;;35.97;24.70;;;3.10;99.90;;;;;;5051356;28;20742;-42
2020/12/02 05:11:17;;;;;;;36.53;24.77;;;3.10;99.90;;;;;;5051943;28;20295;-42
2020/12/02 05:14:03;;;;;;;34.60;24.50;;;3.10;99.90;;;;;;5051890;28;20211;-43
2020/12/02 05:16:31;;;;;;;39.27;24.63;;;3.10;99.90;;;;;;5051869;28;20292;-44
2020/12/02 05:18:59;;;;;;;36.77;24.37;;;3.10;99.90;;;;;;5052176;28;20246;-44
2020/12/02 05:21:31;;;;;;;35.60;23.83;;;3.00;99.90;;;;;;5051825;28;20204;-43
2020/12/02 05:24:11;;;;;;;36.87;23.80;;;3.00;99.90;;;;;;5051602;28;20322;-42
2020/12/02 05:26:41;;;;;;;30.13;22.00;;;3.00;99.90;;;;;;5053479;28;20298;-42
2020/12/02 05:29:27;;;;;;;37.50;24.13;;;3.00;99.90;;;;;;5055786;28;20208;-44
2020/12/02 05:32:02;;;;;;;35.20;23.50;;;2.90;99.90;;;;;;5055696;28;20602;-44
2020/12/02 05:34:31;;;;;;;31.75;21.63;;;2.70;99.90;;;;;;5055744;28;20235;-42
2020/12/02 05:37:00;;;;;;;34.43;22.13;;;2.60;99.90;;;;;;5055779;28;20243;-48
2020/12/02 05:39:41;;;;;;;35.60;23.60;;;2.40;99.90;;;;;;5055566;28;20603;-44
2020/12/02 05:42:21;;;;;;;34.47;23.00;;;2.30;99.90;;;;;;5055966;28;20295;-46
2020/12/02 05:44:52;;;;;;;36.80;23.70;;;2.20;99.90;;;;;;5055575;28;20267;-42
2020/12/02 05:47:20;;;;;;;38.77;23.87;;;2.10;99.90;;;;;;5055507;28;20216;-45
2020/12/02 05:49:51;;;;;;;35.77;22.77;;;2.20;99.90;;;;;;5055419;28;20243;-42
2020/12/02 05:52:25;;;;;;;35.87;23.13;;;2.30;99.90;;;;;;5055685;28;20212;-43
2020/12/02 05:54:57;;;;;;;40.60;25.00;;;2.30;99.90;;;;;;5055543;28;20265;-44
2020/12/02 05:57:25;;;;;;;38.50;24.43;;;2.30;99.90;;;;;;5055363;28;20757;-44
2020/12/02 05:59:56;;;;;;;39.03;23.53;;;2.30;99.90;;;;;;5055178;28;20307;-42
2020/12/02 06:02:24;;;;;;;41.07;23.73;;;2.20;99.90;;;;;;5055429;28;20732;-42
2020/12/02 06:04:53;;;;;;;34.73;23.57;;;2.10;99.90;;;;;;5055226;28;20281;-42
2020/12/02 06:07:22;;;;;;;37.43;23.37;;;2.10;99.90;;;;;;5055286;28;20583;-43
2020/12/02 06:09:51;;;;;;;36.53;22.63;;;2.20;99.90;;;;;;5055269;28;20298;-44
2020/12/02 06:12:20;;;;;;;39.20;24.53;;;2.20;99.90;;;;;;5055092;28;20254;-46
2020/12/02 06:14:49;;;;;;;40.10;23.77;;;2.10;99.90;;;;;;5055048;28;20232;-43
2020/12/02 06:17:26;;;;;;;39.53;24.30;;;2.10;99.90;;;;;;5055082;28;20287;-45
2020/12/02 06:19:53;;;;;;;39.27;24.70;;;2.20;99.90;;;;;;5055011;28;20290;-43
2020/12/02 06:22:48;;;;;;;39.95;24.10;;;2.10;99.90;;;;;;5055137;28;20207;-42
2020/12/02 06:25:47;;;;;;;37.40;23.27;;;2.00;99.90;;;;;;5054786;28;20204;-43
2020/12/02 06:28:20;;;;;;;47.70;26.97;;;1.90;99.90;;;;;;5054877;28;20239;-43
2020/12/02 06:30:56;;;;;;;40.87;24.33;;;1.90;99.90;;;;;;5054883;28;20291;-42
2020/12/02 06:33:30;;;;;;;46.53;25.23;;;1.80;99.90;;;;;;5054675;28;20745;-42
2020/12/02 06:36:08;;;;;;;42.00;25.40;;;1.80;99.90;;;;;;5054521;28;20747;-43
2020/12/02 06:38:35;;;;;;;45.40;25.97;;;1.90;99.90;;;;;;5054352;28;20204;-43
2020/12/02 06:41:28;;;;;;;37.03;23.27;;;2.00;99.90;;;;;;5054403;28;20208;-44
2020/12/02 06:44:18;;;;;;;40.20;24.33;;;1.90;99.90;;;;;;5054480;28;20273;-49
2020/12/02 06:47:23;;;;;;;41.50;22.40;;;1.70;99.90;;;;;;5054894;28;20212;-47
2020/12/02 06:50:07;;;;;;;;;;;;;;;;;;;;;
2020/12/02 06:53:18;;;;;;;35.67;21.83;;;1.70;99.90;;;;;;5050898;28;20235;-50
2020/12/02 06:59:01;;;;;;;34.10;20.03;;;1.90;99.90;;;;;;5049895;28;20211;-43
2020/12/02 07:01:30;;;;;;;28.87;18.67;;;2.00;99.90;;;;;;5054320;28;20244;-42
2020/12/02 07:04:03;;;;;;;33.40;20.70;;;2.10;99.90;;;;;;5054026;28;20424;-44
2020/12/02 07:06:31;;;;;;;40.30;22.50;;;2.30;99.90;;;;;;5054263;28;20251;-45
2020/12/02 07:09:03;;;;;;;35.13;21.80;;;2.30;99.90;;;;;;5053939;28;20208;-45
2020/12/02 07:11:32;;;;;;;26.23;17.50;;;2.20;99.90;;;;;;5054125;28;20285;-46
2020/12/02 07:14:11;;;;;;;30.87;18.63;;;2.20;99.90;;;;;;5053991;28;20208;-43
2020/12/02 07:16:38;;;;;;;31.27;18.33;;;2.30;99.90;;;;;;5053898;28;20299;-44
2020/12/02 07:19:10;;;;;;;28.60;18.13;;;2.40;99.90;;;;;;5054232;28;20299;-44
2020/12/02 07:21:42;;;;;;;34.93;20.83;;;2.40;99.90;;;;;;5053558;28;20212;-46
2020/12/02 07:24:16;;;;;;;29.40;20.70;;;2.30;99.90;;;;;;5053443;28;20264;-44
2020/12/02 07:26:44;;;;;;;31.73;20.27;;;2.20;99.90;;;;;;5053548;28;20243;-45
2020/12/02 07:29:15;;;;;;;36.63;21.73;;;2.10;99.90;;;;;;5053570;28;20298;-43
2020/12/02 07:31:43;;;;;;;32.57;20.10;;;2.10;99.90;;;;;;5053421;28;20239;-46
2020/12/02 07:34:13;;;;;;;34.90;20.90;;;2.10;99.90;;;;;;5053072;28;20285;-43
2020/12/02 07:36:43;;;;;;;33.70;20.33;;;2.10;99.90;;;;;;5053236;28;20666;-44
2020/12/02 07:39:13;;;;;;;32.08;19.83;;;2.20;99.90;;;;;;5053280;28;20224;-44
2020/12/02 07:41:54;;;;;;;33.10;19.93;;;2.30;99.90;;;;;;5053478;28;20208;-43
2020/12/02 07:44:22;;;;;;;33.70;19.33;;;2.40;99.90;;;;;;5053110;28;20278;-47
2020/12/02 07:46:51;;;;;;;32.70;20.63;;;2.50;99.90;;;;;;5053498;28;20287;-44
2020/12/02 07:49:18;;;;;;;40.63;21.93;;;2.60;99.90;;;;;;5052802;28;20208;-44
2020/12/02 07:51:51;;;;;;;31.37;19.13;;;2.60;99.90;;;;;;5052858;28;20453;-43
2020/12/02 07:54:23;;;;;;;32.60;19.53;;;2.50;99.90;;;;;;5052950;28;20208;-44
2020/12/02 07:56:51;;;;;;;33.97;20.00;;;2.50;99.90;;;;;;5052947;28;20222;-43
2020/12/02 07:59:20;;;;;;;30.92;19.45;;;2.40;99.90;;;;;;5052626;28;20291;-42
2020/12/02 08:02:10;;;;;;;30.07;17.93;;;2.30;99.90;;;;;;5052861;28;20294;-47
2020/12/02 08:04:51;;;;;;;30.30;18.33;;;2.30;99.90;;;;;;5042540;28;20224;-45
2020/12/02 08:07:19;;;;;;;35.97;19.57;;;2.30;99.90;;;;;;5052485;28;20678;-51
2020/12/02 08:09:49;;;;;;;31.47;19.37;;;2.30;99.90;;;;;;5052725;28;20222;-49
2020/12/02 08:12:21;;;;;;;32.57;19.63;;;2.30;99.90;;;;;;5053083;28;20204;-47
2020/12/02 08:14:58;;;;;;;33.57;20.87;;;2.20;99.90;;;;;;5052540;28;20205;-49
2020/12/02 08:17:27;;;;;;;39.73;23.30;;;2.00;99.90;;;;;;5052908;28;20222;-43
2020/12/02 08:19:58;;;;;;;35.07;20.73;;;1.90;99.90;;;;;;5052753;28;20529;-44
2020/12/02 08:22:33;;;;;;;39.80;23.00;;;1.80;99.90;;;;;;5052562;28;20266;-47
2020/12/02 08:25:20;;;;;;;38.73;22.30;;;1.70;99.90;;;;;;5052973;28;20235;-44
2020/12/02 08:27:49;;;;;;;37.95;23.23;;;1.70;99.90;;;;;;5052460;28;20204;-42
2020/12/02 08:30:20;;;;;;;35.40;20.23;;;1.70;99.90;;;;;;5052379;28;20298;-44
2020/12/02 08:32:54;;;;;;;39.53;22.37;;;1.70;99.90;;;;;;5052683;28;20212;-51
2020/12/02 08:35:26;;;;;;;36.07;23.07;;;1.70;99.90;;;;;;5052469;28;20360;-47
2020/12/02 08:37:55;;;;;;;37.53;22.33;;;1.70;99.90;;;;;;5052498;28;20216;-50
2020/12/02 08:40:41;;;;;;;35.13;22.03;;;1.80;99.90;;;;;;5052403;28;20212;-46
2020/12/02 08:43:47;;;;;;;36.20;22.23;;;1.80;99.90;;;;;;5052546;28;20214;-47
2020/12/02 08:46:19;;;;;;;31.33;19.57;;;1.80;99.90;;;;;;5034358;28;20258;-48
2020/12/02 08:48:50;;;;;;;31.90;20.87;;;1.70;99.90;;;;;;5052248;28;20297;-49
2020/12/02 08:51:19;;;;;;;38.30;24.70;;;1.60;99.90;;;;;;5052257;28;20247;-45
2020/12/02 08:53:46;;;;;;;37.73;23.07;;;1.60;99.90;;;;;;5052095;28;20200;-46
2020/12/02 08:56:30;;;;;;;40.07;25.13;;;1.50;99.90;;;;;;5052326;28;20303;-51
2020/12/02 08:58:58;;;;;;;39.70;24.07;;;1.50;99.90;;;;;;5050531;28;20730;-46
2020/12/02 09:01:25;;;;;;;39.40;25.80;;;1.50;99.90;;;;;;5051650;28;20218;-48
2020/12/02 09:03:52;;;;;;;40.33;23.93;;;1.50;99.90;;;;;;5051635;28;20234;-47
2020/12/02 09:06:21;;;;;;;37.88;25.80;;;1.50;99.90;;;;;;5051840;28;20304;-51
2020/12/02 09:08:49;;;;;;;35.97;24.20;;;1.60;99.90;;;;;;5051895;28;20208;-47
2020/12/02 09:11:19;;;;;;;35.27;23.70;;;1.70;99.90;;;;;;5051744;28;20690;-48
2020/12/02 09:13:48;;;;;;;36.67;23.77;;;1.80;99.90;;;;;;5051962;28;20295;-50
2020/12/02 09:16:20;;;;;;;37.80;24.77;;;1.90;99.90;;;;;;5051789;28;20335;-50
2020/12/02 09:18:48;;;;;;;35.90;23.98;;;2.00;99.90;;;;;;5051797;28;20685;-47
2020/12/02 09:21:15;;;;;;;37.00;23.27;;;2.10;99.90;;;;;;5051954;28;20290;-48
2020/12/02 09:23:42;;;;;;;37.73;22.80;;;2.20;99.90;;;;;;5051746;28;20315;-48
2020/12/02 09:26:08;;;;;;;40.00;24.73;;;2.30;99.90;;;;;;5051841;28;20390;-44
2020/12/02 09:28:35;;;;;;;38.73;24.97;;;2.30;99.90;;;;;;5051646;28;20272;-44
2020/12/02 09:31:03;;;;;;;41.03;24.83;;;2.30;99.90;;;;;;5051825;28;20204;-45
2020/12/02 09:33:30;;;;;;;40.75;26.27;;;2.40;99.90;;;;;;5051590;28;20249;-45
2020/12/02 09:35:57;;;;;;;41.23;25.83;;;2.40;99.90;;;;;;5051382;28;20212;-45
2020/12/02 09:38:25;;;;;;;47.20;26.10;;;2.30;99.90;;;;;;5051641;28;20298;-43
2020/12/02 09:40:52;;;;;;;41.13;27.00;;;2.30;99.90;;;;;;5051469;28;20220;-44
2020/12/02 09:43:46;;;;;;;40.10;25.27;;;2.40;99.90;;;;;;5051306;28;20238;-43
2020/12/02 09:46:19;;;;;;;39.10;26.07;;;2.40;99.90;;;;;;5051595;28;20287;-44
2020/12/02 09:48:46;;;;;;;38.93;25.50;;;2.40;99.90;;;;;;5051404;28;20303;-44
2020/12/02 09:51:20;;;;;;;38.07;24.80;;;2.50;99.90;;;;;;5051555;28;20298;-42
2020/12/02 09:53:49;;;;;;;40.03;24.97;;;2.50;99.90;;;;;;5051296;28;20542;-44
2020/12/02 09:56:17;;;;;;;38.27;24.73;;;2.50;99.90;;;;;;5051287;28;20208;-43
2020/12/02 09:58:44;;;;;;;44.47;27.27;;;2.60;99.90;;;;;;5051542;28;20208;-44
2020/12/02 10:01:16;;;;;;;40.10;25.30;;;2.60;99.90;;;;;;5051487;28;20212;-44
2020/12/02 10:04:02;;;;;;;37.90;24.60;;;2.60;99.90;;;;;;5051239;28;20325;-43
2020/12/02 10:07:10;;;;;;;42.33;25.77;;;2.60;99.90;;;;;;5051617;28;20255;-47
2020/12/02 10:09:51;;;;;;;46.92;27.45;;;2.60;99.90;;;;;;4970483;28;20246;-44
2020/12/02 10:12:24;;;;;;;40.85;25.60;;;2.60;99.90;;;;;;5046431;28;20204;-45
2020/12/02 10:15:09;;;;;;;46.20;27.90;;;2.60;99.90;;;;;;5054626;28;20283;-47
2020/12/02 10:17:53;;;;;;;52.37;28.43;;;2.60;99.90;;;;;;5055156;28;20309;-45
2020/12/02 10:20:33;;;;;;;41.50;26.40;;;2.70;99.90;;;;;;5054780;28;20439;-43
2020/12/02 10:23:29;;;;;;;43.27;27.10;;;2.70;99.90;;;;;;5054642;28;20207;-43
2020/12/02 10:26:35;;;;;;;42.60;27.40;;;2.70;99.90;;;;;;5054987;28;20235;-44
2020/12/02 10:29:09;;;;;;;40.53;26.37;;;2.70;99.90;;;;;;5054648;28;20277;-43
2020/12/02 10:31:46;;;;;;;41.37;26.50;;;2.70;99.90;;;;;;5054737;28;20215;-47
2020/12/02 10:34:19;;;;;;;41.80;27.90;;;2.70;99.90;;;;;;5054471;28;20319;-48
2020/12/02 10:36:50;;;;;;;44.60;28.50;;;2.70;99.90;;;;;;5054601;28;20331;-47
2020/12/02 10:41:59;;;;;;;44.35;27.95;;;2.50;99.90;;;;;;5013621;28;20221;-47
2020/12/02 10:44:39;;;;;;;46.40;28.17;;;2.40;99.90;;;;;;5014881;28;20656;-47
2020/12/02 10:47:38;;;;;;;42.27;25.60;;;2.40;99.90;;;;;;5014958;28;20313;-47
2020/12/02 10:50:09;;;;;;;40.10;27.50;;;2.30;99.90;;;;;;5014656;28;20300;-50
2020/12/02 10:52:37;;;;;;;43.33;27.27;;;2.20;99.90;;;;;;5015444;28;20236;-45
2020/12/02 10:55:10;;;;;;;42.07;28.33;;;2.10;99.90;;;;;;5014420;28;20664;-47
2020/12/02 10:57:38;;;;;;;44.60;28.33;;;2.00;99.90;;;;;;5014380;28;20214;-45
2020/12/02 11:00:08;;;;;;;47.23;27.70;;;1.90;99.90;;;;;;5014212;28;20209;-45
2020/12/02 11:02:41;;;;;;;45.10;27.95;;;1.80;99.90;;;;;;5014262;28;20627;-47
2020/12/02 11:05:10;;;;;;;42.15;27.40;;;1.80;99.90;;;;;;5014158;28;20768;-46
2020/12/02 11:07:43;;;;;;;46.50;28.97;;;1.80;99.90;;;;;;5014396;28;20300;-46
2020/12/02 11:10:19;;;;;;;40.73;27.43;;;1.90;99.90;;;;;;5014188;28;20213;-44
2020/12/02 11:12:57;;;;;;;44.50;27.33;;;1.90;99.90;;;;;;5014022;28;20667;-43
2020/12/02 11:15:49;;;;;;;42.70;26.87;;;2.00;99.90;;;;;;5014456;28;20216;-44
2020/12/02 11:18:43;;;;;;;45.83;27.70;;;2.20;99.90;;;;;;5014753;28;20628;-45
2020/12/02 11:21:23;;;;;;;41.93;27.27;;;2.30;99.90;;;;;;5014009;28;20209;-46
2020/12/02 11:24:15;;;;;;;46.07;27.40;;;2.40;99.90;;;;;;5013689;28;20806;-47
2020/12/02 11:26:42;;;;;;;43.23;28.20;;;2.40;99.90;;;;;;5013936;28;20660;-46
2020/12/02 11:29:13;;;;;;;44.97;27.50;;;2.50;99.90;;;;;;5014002;28;20300;-49
2020/12/02 11:31:52;;;;;;;38.23;26.73;;;2.60;99.90;;;;;;5013749;28;20244;-48
2020/12/02 11:34:36;;;;;;;41.60;28.33;;;2.70;99.90;;;;;;5013676;28;20296;-47
2020/12/02 11:37:08;;;;;;;47.03;29.03;;;2.80;99.90;;;;;;5013986;28;20210;-46
2020/12/02 11:39:50;;;;;;;41.37;28.30;;;2.70;99.90;;;;;;5013480;28;20233;-49
2020/12/02 11:42:26;;;;;;;44.70;29.30;;;2.80;99.90;;;;;;5013680;28;20691;-52
2020/12/02 11:44:57;;;;;;;42.80;28.40;;;2.80;99.90;;;;;;5013590;28;20327;-48
2020/12/02 11:47:37;;;;;;;40.07;27.07;;;2.80;99.90;;;;;;5013604;28;20209;-48
2020/12/02 11:50:12;;;;;;;44.13;27.70;;;2.80;99.90;;;;;;5013462;28;20221;-47
2020/12/02 11:53:02;;;;;;;39.25;26.50;;;2.80;99.90;;;;;;5013409;28;20213;-47
2020/12/02 11:55:32;;;;;;;41.67;27.60;;;2.70;99.90;;;;;;5013712;28;20502;-46
2020/12/02 11:58:00;;;;;;;38.53;25.93;;;2.80;99.90;;;;;;5013672;28;20304;-48
2020/12/02 12:00:28;;;;;;;44.43;26.53;;;2.80;99.90;;;;;;5013380;28;20237;-49
2020/12/02 12:03:18;;;;;;;45.30;28.85;;;2.80;99.90;;;;;;5012954;28;20734;-49
2020/12/02 12:05:53;;;;;;;41.13;28.27;;;2.80;99.90;;;;;;5012993;28;20469;-47
2020/12/02 12:08:29;;;;;;;43.33;28.00;;;2.80;99.90;;;;;;5013215;28;20307;-44
2020/12/02 12:10:59;;;;;;;43.30;28.20;;;2.70;99.90;;;;;;5013119;28;20263;-43
2020/12/02 12:13:33;;;;;;;39.77;26.40;;;2.70;99.90;;;;;;5013165;28;20316;-47
2020/12/02 12:16:08;;;;;;;42.17;28.17;;;2.60;99.90;;;;;;5013120;28;20304;-43
2020/12/02 12:18:45;;;;;;;48.57;31.10;;;2.60;99.90;;;;;;5012973;28;20239;-48
2020/12/02 12:21:28;;;;;;;43.17;28.33;;;2.60;99.90;;;;;;5012806;28;20603;-52
2020/12/02 12:24:00;;;;;;;42.83;28.47;;;2.50;99.90;;;;;;5012846;28;20529;-46
2020/12/02 12:26:32;;;;;;;40.83;27.20;;;2.40;99.90;;;;;;5012789;28;20251;-51
2020/12/02 12:29:00;;;;;;;43.10;27.80;;;2.50;99.90;;;;;;5012915;28;20292;-46
2020/12/02 12:31:35;;;;;;;44.10;28.37;;;2.40;99.90;;;;;;5012557;28;20237;-50
2020/12/02 12:34:09;;;;;;;40.20;26.97;;;2.50;99.90;;;;;;5012756;28;20663;-46
2020/12/02 12:36:37;;;;;;;48.10;30.27;;;2.50;99.90;;;;;;5012427;28;20731;-42
2020/12/02 12:39:16;;;;;;;39.77;27.80;;;2.60;99.90;;;;;;5012781;28;20622;-47
2020/12/02 12:41:46;;;;;;;42.47;27.40;;;2.60;99.90;;;;;;5012454;28;20322;-50
2020/12/02 12:44:19;;;;;;;43.33;28.13;;;2.60;99.90;;;;;;5012477;28;20320;-46
2020/12/02 12:46:57;;;;;;;43.53;26.80;;;2.60;99.90;;;;;;5012621;28;20251;-47
2020/12/02 12:49:27;;;;;;;40.63;27.03;;;2.50;99.90;;;;;;5012939;28;20249;-49
2020/12/02 12:51:56;;;;;;;46.67;30.10;;;2.50;99.90;;;;;;5012487;28;20210;-52
2020/12/02 12:54:25;;;;;;;41.83;30.07;;;2.50;99.90;;;;;;5012491;28;20246;-46
2020/12/02 12:56:55;;;;;;;45.27;30.17;;;2.50;99.90;;;;;;5012593;28;20588;-51
2020/12/02 12:59:25;;;;;;;46.43;28.40;;;2.40;99.90;;;;;;5012372;28;20296;-47
2020/12/02 13:01:55;;;;;;;41.43;28.80;;;2.30;99.90;;;;;;5012315;28;20631;-51
2020/12/02 13:04:24;;;;;;;41.92;27.63;;;2.30;99.90;;;;;;5012417;28;20316;-45
2020/12/02 13:07:14;;;;;;;42.63;29.00;;;2.30;99.90;;;;;;5012030;28;20209;-52
2020/12/02 13:10:03;;;;;;;49.10;29.90;;;2.30;99.90;;;;;;5012233;28;20320;-51
2020/12/02 13:12:34;;;;;;;40.20;28.27;;;2.20;99.90;;;;;;5012467;28;20240;-46